Decatur, Georgia
Current Conditions -  °F | °C
As of 3:53 PM on Saturday 22 Nov 2014 (Local Time) from KPDK Reporting Station
Clear Clear  
Wind Chill: 59°   Ceiling: Unl
Heat Index: 59°   Visibility: 10mi
Dew Point: 27°   Wind: 5mph
Humidity: 29%   Direction: NA
Pressure: 30.27"   Gusts: NA
Location:  33.77°N, 84.3°W
Report Text: KPDK 222053Z VRB04KT 10SM CLR 15/M03 A3027 RMK AO2 SLP255 T01501028 57030
Loading
Personal Weather Stations






























Interactive Weather Map New forecast layout! Learn more

10-Day Weather Forecast

Advertisements
Track Severe Weather on mobile